Time;durP1;ratioP1;P1;durP2;ratioP2;P2;SDS_P1;SDS_P2;PMS_P1;PMS_P2;Temp;Humidity;BMP_temperature;BMP_pressure;BME280_temperature;BME280_humidity;BME280_pressure;Samples;Min_cycle;Max_cycle;Signal;HPM_P1;HPM_P2
2022/10/31 00:01:59;;;;;;;37.33;31.17;;;12.60;99.90;;;12.28;100.00;101328.38;4937967;29;20893;-70
2022/10/31 00:04:28;;;;;;;44.07;32.63;;;12.40;1.00;;;12.20;100.00;101323.94;4932617;29;20417;-71
2022/10/31 00:06:57;;;;;;;44.73;31.53;;;12.30;99.90;;;11.96;100.00;101324.44;4944231;29;20981;-71
2022/10/31 00:09:27;;;;;;;43.60;30.30;;;12.10;99.90;;;12.38;100.00;101318.81;4943591;29;20443;-70
2022/10/31 00:11:56;;;;;;;46.10;31.13;;;12.20;99.90;;;12.76;100.00;101326.41;4925656;29;20439;-70
2022/10/31 00:14:25;;;;;;;39.57;29.77;;;12.40;99.90;;;12.92;100.00;101329.59;4937828;29;20480;-70
2022/10/31 00:16:54;;;;;;;39.03;29.83;;;12.60;99.90;;;13.22;99.36;101331.91;4942183;28;20509;-71
2022/10/31 00:19:22;;;;;;;45.17;31.50;;;12.80;99.90;;;13.92;95.13;101336.66;4946538;28;20406;-71
2022/10/31 00:21:53;;;;;;;41.53;28.17;;;13.30;99.90;;;14.05;92.88;101336.63;4931468;28;20426;-70
2022/10/31 00:24:21;;;;;;;39.03;31.13;;;13.50;99.90;;;14.16;92.20;101344.13;4922903;29;20414;-70
2022/10/31 00:26:51;;;;;;;37.53;30.93;;;13.70;99.90;;;13.77;92.17;101345.06;4925348;29;20465;-71
2022/10/31 00:29:22;;;;;;;49.23;30.10;;;13.60;99.90;;;13.72;93.06;101339.41;4922533;29;20891;-70
2022/10/31 00:31:52;;;;;;;38.70;30.03;;;13.60;99.90;;;13.46;93.78;101337.56;4937887;29;20435;-71
2022/10/31 00:34:21;;;;;;;40.30;29.27;;;13.40;99.90;;;13.09;95.37;101340.88;4937322;29;20464;-71
2022/10/31 00:36:50;;;;;;;32.10;28.37;;;13.10;99.90;;;12.98;97.50;101344.19;4938529;29;20530;-72
2022/10/31 00:39:19;;;;;;;43.67;30.30;;;13.00;99.90;;;13.03;98.04;101339.81;4946443;28;20433;-70
2022/10/31 00:41:47;;;;;;;36.30;28.10;;;12.90;99.90;;;13.08;97.98;101339.19;4933819;29;20499;-71
2022/10/31 00:44:17;;;;;;;36.30;27.83;;;12.90;99.90;;;13.00;98.20;101342.13;4942017;29;20413;-71
2022/10/31 00:46:47;;;;;;;50.37;31.30;;;12.90;99.90;;;12.90;98.95;101347.13;4935315;29;20434;-70
2022/10/31 00:49:16;;;;;;;45.47;29.60;;;12.80;99.90;;;12.95;99.35;101347.34;4937775;29;20951;-70
2022/10/31 00:51:44;;;;;;;41.93;28.90;;;12.80;99.90;;;13.21;98.31;101349.28;4936314;29;20471;-70
2022/10/31 00:54:13;;;;;;;38.70;27.77;;;12.90;99.90;;;13.35;96.96;101345.53;4934686;29;20440;-69
2022/10/31 00:56:42;;;;;;;38.50;27.50;;;13.10;99.90;;;13.48;96.57;101351.78;4934121;29;20465;-70
2022/10/31 00:59:10;;;;;;;39.90;29.10;;;13.20;99.90;;;13.71;96.07;101355.94;4938204;28;20954;-71
2022/10/31 01:01:41;;;;;;;41.07;28.93;;;13.40;99.90;;;13.56;95.52;101355.31;4939918;29;20472;-70
2022/10/31 01:04:09;;;;;;;41.63;26.60;;;13.40;99.90;;;13.44;96.19;101358.72;4938498;28;20943;-71
2022/10/31 01:06:38;;;;;;;31.47;25.40;;;13.30;99.90;;;13.47;96.29;101361.00;4939491;29;20464;-71
2022/10/31 01:09:07;;;;;;;41.93;25.57;;;13.40;99.90;;;13.58;96.38;101355.97;4949871;29;20426;-71
2022/10/31 01:11:36;;;;;;;31.17;27.10;;;13.40;99.90;;;13.58;96.13;101355.97;4946068;29;20406;-70
2022/10/31 01:14:09;;;;;;;40.07;26.70;;;13.40;99.90;;;13.46;95.58;101363.91;4957859;28;20456;-70
2022/10/31 01:16:38;;;;;;;28.73;22.80;;;13.30;99.90;;;13.30;95.93;101370.63;4949145;29;20452;-72
2022/10/31 01:19:08;;;;;;;37.87;24.80;;;13.30;99.90;;;13.37;97.62;101371.44;4956894;29;20426;-72
2022/10/31 01:21:37;;;;;;;33.90;25.83;;;13.30;99.90;;;13.67;95.80;101371.84;4958928;29;20448;-71
2022/10/31 01:24:07;;;;;;;33.40;24.57;;;13.40;99.90;;;13.62;95.93;101368.09;4956389;28;20439;-71
2022/10/31 01:26:39;;;;;;;32.50;23.90;;;13.40;99.90;;;13.75;96.07;101373.50;4958300;28;20468;-72
2022/10/31 01:29:09;;;;;;;31.67;27.27;;;13.50;99.90;;;13.57;96.33;101365.16;4964026;29;20509;-71
2022/10/31 01:31:40;;;;;;;31.70;22.93;;;13.40;99.90;;;13.58;96.87;101367.69;4941088;29;20862;-70
2022/10/31 01:34:16;;;;;;;24.67;21.87;;;13.40;99.90;;;13.34;97.87;101366.44;4947169;29;20482;-70
2022/10/31 01:36:50;;;;;;;37.43;22.13;;;13.40;99.90;;;13.65;96.93;101373.13;4953083;28;20959;-71
2022/10/31 01:39:20;;;;;;;35.03;20.90;;;13.40;99.90;;;13.82;96.70;101366.19;4945205;29;20421;-72
2022/10/31 01:41:51;;;;;;;29.83;21.27;;;13.60;99.90;;;13.98;96.00;101379.34;4932848;29;20424;-71
2022/10/31 01:44:52;;;;;;;26.43;19.07;;;13.60;99.90;;;14.19;94.93;101379.06;4934585;29;20440;-70
2022/10/31 01:47:41;;;;;;;24.20;18.60;;;13.80;99.90;;;14.11;93.71;101373.88;4936649;29;20403;-70
2022/10/31 01:50:31;;;;;;;32.20;20.27;;;13.90;99.90;;;13.49;96.50;101369.78;4949610;28;20410;-69
2022/10/31 01:53:05;;;;;;;30.90;22.07;;;13.60;99.90;;;13.63;97.06;101369.78;4947154;29;20464;-70
2022/10/31 01:55:41;;;;;;;32.30;21.00;;;13.60;99.90;;;14.30;93.73;101383.00;4938151;28;20463;-70
2022/10/31 01:58:15;;;;;;;37.23;20.33;;;14.00;99.90;;;14.24;92.90;101379.25;4935410;29;20414;-72
2022/10/31 02:00:53;;;;;;;31.23;19.53;;;14.00;99.90;;;14.01;93.72;101378.06;4958629;28;20493;-68
2022/10/31 02:03:26;;;;;;;31.03;20.90;;;13.80;99.90;;;14.13;93.75;101382.66;4940836;29;20418;-70
2022/10/31 02:05:58;;;;;;;25.70;17.50;;;13.90;99.90;;;13.96;93.40;101377.88;4945788;28;20494;-70
2022/10/31 02:08:30;;;;;;;25.43;17.13;;;13.80;99.90;;;13.92;94.09;101388.34;4940132;29;20415;-70
2022/10/31 02:11:02;;;;;;;34.10;22.07;;;13.80;99.90;;;13.87;93.75;101383.56;4926061;29;20452;-70
2022/10/31 02:13:31;;;;;;;26.93;20.77;;;13.80;99.90;;;13.68;95.11;101381.69;4942725;29;20443;-71
2022/10/31 02:16:00;;;;;;;23.43;17.10;;;13.60;99.90;;;13.34;96.28;101380.03;4942089;28;20434;-70
2022/10/31 02:18:31;;;;;;;25.70;18.83;;;13.40;99.90;;;13.42;96.84;101384.41;4939221;29;20489;-70
2022/10/31 02:21:14;;;;;;;23.13;19.57;;;13.30;99.90;;;13.49;96.86;101383.38;4937377;28;20400;-70
2022/10/31 02:24:31;;;;;;;26.57;17.57;;;13.30;99.90;;;13.37;98.26;101379.59;4934401;29;20387;-71
2022/10/31 02:27:38;;;;;;;24.20;15.53;;;13.20;99.90;;;13.58;97.81;101378.56;4936436;29;20454;-70
2022/10/31 02:30:15;;;;;;;23.23;18.00;;;13.30;99.90;;;13.76;96.05;101384.19;4939315;29;20538;-72
2022/10/31 02:33:11;;;;;;;22.10;17.03;;;13.40;99.90;;;13.54;95.89;101376.47;4946537;29;20442;-69
2022/10/31 02:36:01;;;;;;;29.13;17.43;;;13.30;99.90;;;13.24;97.29;101376.88;4938185;29;20495;-70
2022/10/31 02:38:48;;;;;;;18.40;15.50;;;13.20;99.90;;;13.46;98.12;101378.34;4932420;29;20474;-69
2022/10/31 02:41:38;;;;;;;18.87;16.80;;;13.20;99.90;;;13.59;96.21;101379.41;4941271;29;20450;-70
2022/10/31 02:44:22;;;;;;;29.70;18.47;;;13.30;99.90;;;13.24;96.42;101381.47;4939052;29;20445;-70
2022/10/31 02:47:00;;;;;;;25.10;18.13;;;13.20;99.90;;;13.37;97.25;101379.59;4941527;29;20439;-70
2022/10/31 02:49:39;;;;;;;24.60;18.03;;;13.10;99.90;;;13.29;96.45;101379.81;4936692;29;20731;-70
2022/10/31 02:52:19;;;;;;;26.60;18.70;;;13.20;99.90;;;13.48;96.18;101380.88;4956829;28;20425;-70
2022/10/31 02:54:49;;;;;;;22.57;18.37;;;13.30;99.90;;;13.32;95.25;101386.69;4944948;29;20430;-70
2022/10/31 02:57:25;;;;;;;20.73;17.07;;;13.30;99.90;;;13.74;94.80;101385.47;4952869;28;20441;-70
2022/10/31 03:00:00;;;;;;;25.93;18.10;;;13.40;99.90;;;13.75;93.83;101389.81;4936049;29;20470;-71
2022/10/31 03:02:56;;;;;;;21.97;17.17;;;13.50;99.90;;;13.49;94.10;101396.13;4958451;28;20429;-71
2022/10/31 03:05:49;;;;;;;22.13;16.57;;;13.50;99.90;;;13.50;94.91;101392.38;4936004;29;20441;-71
2022/10/31 03:08:27;;;;;;;23.67;18.47;;;13.50;99.90;;;13.25;95.50;101399.47;4930354;29;20514;-71
2022/10/31 03:11:00;;;;;;;24.23;16.17;;;13.30;99.90;;;13.44;97.35;101394.03;4931108;29;20454;-71
2022/10/31 03:13:40;;;;;;;23.40;17.77;;;13.20;99.90;;;13.46;94.58;101400.09;4930498;29;20438;-72
2022/10/31 03:16:15;;;;;;;22.93;16.13;;;13.40;99.90;;;13.61;94.03;101404.47;4933644;29;20608;-71
2022/10/31 03:18:53;;;;;;;22.10;16.27;;;13.50;99.90;;;13.60;95.51;101400.97;4958931;28;20511;-70
2022/10/31 03:21:30;;;;;;;21.13;15.80;;;13.40;99.90;;;13.54;95.24;101401.78;4939406;29;20487;-72
2022/10/31 03:24:03;;;;;;;29.63;16.30;;;13.40;99.90;;;13.55;94.18;101405.34;4946558;28;20500;-72
2022/10/31 03:26:36;;;;;;;24.57;15.37;;;13.50;99.90;;;13.56;95.82;101415.16;4937201;28;21178;-70
2022/10/31 03:29:08;;;;;;;22.83;15.50;;;13.30;99.90;;;13.32;96.63;101416.59;4935779;29;20551;-71
2022/10/31 03:31:50;;;;;;;20.17;15.83;;;13.30;99.90;;;13.45;95.36;101417.47;4938590;29;20444;-71
2022/10/31 03:34:21;;;;;;;22.93;15.57;;;13.40;99.90;;;13.48;94.52;101417.03;4939863;29;20442;-71
2022/10/31 03:36:57;;;;;;;17.60;14.07;;;13.40;99.90;;;13.36;95.03;101424.13;4941595;28;20425;-70
2022/10/31 03:39:28;;;;;;;17.30;15.27;;;13.40;99.90;;;13.34;95.23;101426.25;4945204;29;20484;-71
2022/10/31 03:42:03;;;;;;;21.63;14.07;;;13.30;99.90;;;13.37;96.23;101439.41;4937577;29;20644;-72
2022/10/31 03:44:35;;;;;;;23.23;14.70;;;13.20;99.90;;;13.63;95.25;101435.03;4931853;29;20403;-70
2022/10/31 03:47:05;;;;;;;19.80;13.47;;;13.30;99.90;;;13.83;93.25;101441.31;4930564;29;20469;-71
2022/10/31 03:49:36;;;;;;;20.80;13.87;;;13.50;99.90;;;13.83;93.55;101435.88;4930839;29;20423;-71
2022/10/31 03:52:19;;;;;;;24.63;16.43;;;13.50;99.90;;;13.63;93.33;101435.03;4939085;29;20433;-70
2022/10/31 03:54:57;;;;;;;20.17;14.67;;;13.50;99.90;;;13.77;93.66;101448.44;4933372;29;20590;-70
2022/10/31 03:57:41;;;;;;;22.47;14.93;;;13.50;99.90;;;13.94;93.54;101443.41;4936819;29;20447;-72
2022/10/31 04:00:15;;;;;;;21.57;13.77;;;13.60;99.90;;;13.90;92.37;101442.97;4932987;29;20430;-71
2022/10/31 04:02:56;;;;;;;18.67;13.43;;;13.70;99.90;;;13.66;92.94;101440.06;4931874;29;20447;-70
2022/10/31 04:05:30;;;;;;;17.83;12.77;;;13.60;99.90;;;13.52;93.91;101441.94;4926147;28;20453;-71
2022/10/31 04:08:09;;;;;;;20.40;13.00;;;13.50;99.90;;;13.51;95.45;101444.88;4945009;29;20454;-71
2022/10/31 04:10:41;;;;;;;16.03;11.97;;;13.30;99.90;;;13.42;94.59;101441.50;4961267;28;20518;-71
2022/10/31 04:13:41;;;;;;;13.87;12.47;;;13.30;99.90;;;13.45;93.70;101443.81;4937536;28;20439;-72
2022/10/31 04:16:17;;;;;;;30.90;14.13;;;13.50;99.90;;;13.62;94.96;101444.22;4940026;29;20447;-70
2022/10/31 04:18:46;;;;;;;19.27;13.53;;;13.40;99.90;;;13.56;93.62;101451.34;4949270;29;20420;-71
2022/10/31 04:21:17;;;;;;;16.23;12.77;;;13.40;99.90;;;13.51;94.30;101450.31;4939500;28;20590;-70
2022/10/31 04:23:48;;;;;;;22.97;14.07;;;13.40;99.90;;;13.45;94.45;101458.25;4947976;29;20950;-71
2022/10/31 04:30:59;;;;;;;22.77;13.87;;;13.20;99.90;;;13.86;92.93;101462.66;4928195;29;20399;-70
2022/10/31 04:33:29;;;;;;;12.67;11.37;;;13.50;99.90;;;13.83;92.41;101457.63;4932779;29;20480;-71
2022/10/31 04:35:58;;;;;;;17.83;13.50;;;13.50;99.90;;;13.54;93.10;101453.44;4940763;29;20475;-71
2022/10/31 04:38:29;;;;;;;18.23;13.27;;;13.40;99.90;;;13.43;93.66;101463.06;4951397;29;20486;-70
2022/10/31 04:41:00;;;;;;;17.37;14.80;;;13.30;99.90;;;13.58;93.57;101462.03;4962038;28;20455;-72
2022/10/31 04:43:48;;;;;;;27.10;12.63;;;13.40;99.90;;;13.88;91.33;101466.00;4943824;29;20414;-71
2022/10/31 04:46:18;;;;;;;19.70;13.43;;;13.60;99.90;;;13.58;92.16;101462.03;4946034;28;20832;-72
2022/10/31 04:48:46;;;;;;;19.40;13.63;;;13.50;99.90;;;13.27;94.60;101477.03;4932981;29;20987;-72
2022/10/31 04:51:16;;;;;;;16.83;13.33;;;13.20;99.90;;;13.76;92.71;101467.66;4932587;29;20423;-71
2022/10/31 04:53:46;;;;;;;17.27;12.93;;;13.40;99.90;;;13.40;91.97;101462.63;4939620;29;20486;-72
2022/10/31 04:56:31;;;;;;;20.00;14.40;;;13.40;99.90;;;13.01;94.67;101463.34;4941176;28;20442;-71
2022/10/31 04:59:03;;;;;;;21.10;13.30;;;13.10;99.90;;;12.76;96.41;101468.47;4919280;29;20458;-71
2022/10/31 05:01:44;;;;;;;16.97;12.87;;;12.80;99.90;;;12.75;99.38;101474.09;4944974;28;20423;-72
2022/10/31 05:04:14;;;;;;;17.57;11.80;;;12.70;99.90;;;12.87;98.52;101473.34;4937509;29;20412;-72
2022/10/31 05:06:42;;;;;;;17.03;14.43;;;12.80;99.90;;;12.86;98.88;101470.81;4939071;29;20475;-71
2022/10/31 05:09:11;;;;;;;23.50;14.27;;;12.70;99.90;;;12.88;98.77;101471.44;4940618;29;20443;-70
2022/10/31 05:11:42;;;;;;;16.67;12.80;;;12.70;99.90;;;12.81;98.60;101473.31;4961505;28;20441;-72
2022/10/31 05:14:29;;;;;;;14.23;12.53;;;12.70;99.90;;;12.83;98.54;101476.66;4934754;29;20979;-72
2022/10/31 05:17:18;;;;;;;22.93;11.23;;;12.70;99.90;;;13.14;98.30;101474.28;4933803;28;20450;-70
2022/10/31 05:20:10;;;;;;;16.17;12.37;;;12.80;99.90;;;13.14;97.55;101479.72;4900861;29;20445;-70
2022/10/31 05:22:59;;;;;;;23.93;14.77;;;12.80;99.90;;;12.91;97.98;101487.34;4892153;23;1218175;-72
2022/10/31 05:25:30;;;;;;;22.13;14.10;;;12.80;99.90;;;12.85;98.03;101480.00;4891713;29;20232;-70
2022/10/31 05:28:04;;;;;;;14.10;12.20;;;12.70;99.90;;;12.92;99.17;101486.31;4919324;29;20537;-70
2022/10/31 05:30:35;;;;;;;21.60;13.40;;;12.80;99.90;;;13.13;97.87;101483.47;4913023;29;20428;-71
2022/10/31 05:33:06;;;;;;;15.07;12.10;;;12.90;99.90;;;12.96;98.43;101487.56;4895175;29;20454;-70
2022/10/31 05:36:11;;;;;;;16.57;11.97;;;12.80;99.90;;;13.10;97.39;101488.44;4874793;23;20454;-68
2022/10/31 05:38:51;;;;;;;19.37;14.10;;;12.90;99.90;;;12.92;98.26;101487.16;4885245;29;20558;-68
2022/10/31 05:41:37;;;;;;;21.93;13.23;;;12.80;99.90;;;12.94;97.06;101489.66;4879600;29;20425;-68
2022/10/31 05:44:16;;;;;;;12.47;11.20;;;12.80;99.90;;;13.78;96.07;101490.06;4884422;29;20732;-68
2022/10/31 05:47:08;;;;;;;21.30;13.70;;;13.30;99.90;;;13.91;93.89;101496.34;4882640;29;20456;-68
2022/10/31 05:50:12;;;;;;;21.37;13.13;;;13.50;99.90;;;14.20;91.86;101494.22;4855311;29;20423;-69
2022/10/31 05:52:56;;;;;;;18.80;11.60;;;13.70;99.90;;;13.78;92.00;101481.91;4867694;29;20943;-67
2022/10/31 05:55:32;;;;;;;15.10;11.50;;;13.60;99.90;;;13.70;94.46;101482.94;4877721;29;20550;-68
2022/10/31 05:58:10;;;;;;;16.97;13.00;;;13.50;99.90;;;14.03;92.71;101495.72;4892371;29;20450;-70
2022/10/31 06:00:43;;;;;;;17.03;11.20;;;13.60;99.90;;;14.37;91.57;101500.94;4889437;29;20454;-69
2022/10/31 06:03:13;;;;;;;20.83;11.63;;;13.90;99.90;;;14.46;89.66;101501.56;4891310;29;20520;-68
2022/10/31 06:05:48;;;;;;;22.63;12.70;;;14.10;99.90;;;14.13;91.24;101507.88;4882659;29;20482;-69
2022/10/31 06:08:25;;;;;;;20.73;13.87;;;14.00;99.90;;;14.19;91.15;101507.00;4860451;29;20502;-68
2022/10/31 06:10:56;;;;;;;19.07;13.77;;;13.90;99.90;;;14.23;90.28;101502.81;4866653;29;21025;-69
2022/10/31 06:13:45;;;;;;;17.80;13.23;;;13.90;99.90;;;14.09;91.24;101506.59;4880957;29;20460;-68
2022/10/31 06:16:24;;;;;;;19.10;12.63;;;13.80;99.90;;;14.26;89.42;101507.84;4890200;29;20469;-69
2022/10/31 06:18:56;;;;;;;20.33;13.77;;;13.90;99.90;;;14.56;87.63;101515.56;4867029;29;20933;-67
2022/10/31 06:21:26;;;;;;;21.00;14.33;;;14.20;99.90;;;14.31;88.13;101509.94;4890248;29;20433;-68
2022/10/31 06:23:55;;;;;;;17.00;15.03;;;14.10;99.90;;;14.45;87.98;101519.78;4889319;29;20450;-68
2022/10/31 06:27:00;;;;;;;16.97;12.57;;;14.10;99.90;;;14.55;87.85;101522.06;4858391;29;20491;-67
2022/10/31 06:29:29;;;;;;;16.97;11.33;;;14.20;99.90;;;14.51;87.78;101518.09;4892468;29;20457;-69
2022/10/31 06:32:15;;;;;;;22.23;15.23;;;14.20;99.90;;;14.54;87.81;101525.84;4887472;29;20437;-68
2022/10/31 06:34:50;;;;;;;19.23;13.10;;;14.30;99.90;;;14.55;86.81;101524.78;4893884;29;20460;-69
2022/10/31 06:37:25;;;;;;;16.90;11.63;;;14.30;99.90;;;14.48;86.62;101526.66;4872667;29;20437;-68
2022/10/31 06:40:04;;;;;;;17.43;12.97;;;14.30;99.90;;;14.19;89.50;101528.78;4877667;29;20447;-68
2022/10/31 06:42:49;;;;;;;15.93;11.23;;;14.00;99.90;;;14.19;89.31;101527.94;4891505;29;20437;-67
2022/10/31 06:45:25;;;;;;;18.17;13.73;;;13.90;99.90;;;14.47;88.83;101530.47;4885341;29;20449;-67
2022/10/31 06:48:23;;;;;;;18.33;13.60;;;14.00;99.90;;;14.40;87.04;101530.47;4879226;29;20416;-68
2022/10/31 06:51:13;;;;;;;33.07;13.67;;;14.00;99.90;;;14.47;87.56;101535.91;4884353;29;21046;-67
2022/10/31 06:53:43;;;;;;;19.20;14.47;;;14.10;99.90;;;14.67;87.82;101532.06;4879602;29;20563;-67
2022/10/31 06:56:14;;;;;;;17.73;14.60;;;14.20;99.90;;;14.80;85.44;101542.13;4877140;29;20522;-69
2022/10/31 06:58:48;;;;;;;17.53;13.30;;;14.50;99.90;;;14.32;88.02;101545.13;4880025;29;20443;-67
2022/10/31 07:01:21;;;;;;;14.90;12.93;;;14.20;99.90;;;14.78;85.69;101560.56;4884676;29;20432;-69
2022/10/31 07:03:52;;;;;;;16.67;13.10;;;14.50;99.90;;;14.28;87.63;101554.72;4892606;29;20454;-69
2022/10/31 07:06:21;;;;;;;15.43;12.70;;;14.20;99.90;;;14.31;88.71;101548.03;4882161;29;20452;-69
2022/10/31 07:08:50;;;;;;;20.13;13.73;;;14.00;99.90;;;14.57;87.23;101558.09;4894095;29;20433;-68
2022/10/31 07:11:20;;;;;;;23.00;12.80;;;14.30;99.90;;;15.11;85.41;101555.81;4870477;29;20455;-67
2022/10/31 07:13:49;;;;;;;17.20;12.90;;;14.50;99.90;;;14.97;85.04;101559.66;4881764;29;20441;-69
2022/10/31 07:16:19;;;;;;;20.57;12.93;;;14.50;99.90;;;14.89;85.89;101557.19;4874999;29;20977;-68
2022/10/31 07:18:48;;;;;;;18.37;12.10;;;14.60;99.90;;;15.27;84.25;101553.66;4875239;29;20456;-67
2022/10/31 07:21:19;;;;;;;23.23;15.53;;;14.80;99.90;;;15.04;85.62;101560.50;4893621;29;20545;-69
2022/10/31 07:23:50;;;;;;;13.47;11.77;;;14.70;99.90;;;15.65;83.73;101562.72;4887576;29;20523;-68
2022/10/31 07:26:37;;;;;;;16.27;12.87;;;15.00;99.90;;;15.35;84.25;101561.59;4879507;29;20916;-67
2022/10/31 07:29:06;;;;;;;22.23;13.87;;;15.00;99.90;;;15.62;82.54;101561.28;4887583;29;20467;-68
2022/10/31 07:31:35;;;;;;;16.77;10.70;;;15.20;99.90;;;15.90;81.33;101558.16;4884049;29;21041;-69
2022/10/31 07:34:11;;;;;;;18.13;13.07;;;15.40;99.90;;;15.75;81.94;101560.34;4889162;29;20955;-69
2022/10/31 07:37:00;;;;;;;18.00;12.17;;;15.50;99.90;;;15.58;82.96;101572.84;4882414;29;20972;-68
2022/10/31 07:39:29;;;;;;;25.07;12.77;;;15.30;99.90;;;15.75;82.78;101571.25;4878499;29;20892;-68
2022/10/31 07:42:00;;;;;;;20.70;11.10;;;15.40;99.90;;;15.82;82.61;101579.41;4882214;29;20497;-68
2022/10/31 07:44:30;;;;;;;18.90;13.10;;;15.50;99.90;;;15.53;84.41;101583.59;4867861;29;20430;-69
2022/10/31 07:47:22;;;;;;;23.23;13.00;;;15.30;99.90;;;15.65;83.69;101584.53;4890037;29;20430;-69
2022/10/31 07:50:25;;;;;;;24.40;13.83;;;15.30;99.90;;;15.80;82.51;101576.06;4881898;29;20853;-67
2022/10/31 07:53:15;;;;;;;22.30;14.00;;;15.50;99.90;;;15.43;85.13;101586.75;4882519;29;20462;-68
2022/10/31 07:55:45;;;;;;;21.03;13.90;;;15.20;99.90;;;15.27;85.13;101598.13;4879619;29;20470;-68
2022/10/31 07:58:20;;;;;;;19.37;15.07;;;15.20;99.90;;;15.15;87.51;101595.22;4866398;29;20432;-68
2022/10/31 08:00:49;;;;;;;16.73;14.80;;;14.90;99.90;;;14.75;88.57;101589.09;4895621;29;20450;-67
2022/10/31 08:03:30;;;;;;;21.80;16.10;;;14.70;99.90;;;15.56;85.46;101599.50;4868668;29;20439;-67
2022/10/31 08:06:18;;;;;;;21.33;14.27;;;15.00;99.90;;;15.65;84.33;101606.38;4882793;29;20439;-67
2022/10/31 08:09:04;;;;;;;24.93;14.07;;;15.30;99.90;;;15.34;85.49;101603.56;4894730;29;20450;-67
2022/10/31 08:11:34;;;;;;;16.70;14.43;;;15.10;99.90;;;15.42;85.70;101606.03;4895935;29;20439;-68
2022/10/31 08:14:04;;;;;;;24.93;13.67;;;15.20;99.90;;;15.44;85.93;101604.75;4874531;29;20435;-67
2022/10/31 08:16:33;;;;;;;20.30;14.20;;;15.20;99.90;;;15.90;84.57;101604.53;4897341;29;20464;-69
2022/10/31 08:19:05;;;;;;;21.63;15.77;;;15.40;99.90;;;15.57;84.65;101603.91;4883825;29;20437;-68
2022/10/31 08:21:39;;;;;;;18.63;14.40;;;15.30;99.90;;;15.65;85.22;101600.91;4866208;29;20808;-68
2022/10/31 08:24:11;;;;;;;18.90;12.67;;;15.30;99.90;;;16.15;83.31;101603.75;4874711;29;20839;-69
2022/10/31 08:26:41;;;;;;;24.50;15.27;;;15.70;99.90;;;15.79;83.45;101607.13;4869883;29;20966;-68
2022/10/31 08:29:12;;;;;;;21.63;14.10;;;15.60;99.90;;;15.88;83.53;101611.28;4897013;29;20689;-68
2022/10/31 08:31:42;;;;;;;23.13;15.80;;;15.60;99.90;;;15.69;84.40;101618.53;4889335;29;21136;-68
2022/10/31 08:34:30;;;;;;;20.50;15.00;;;15.50;99.90;;;15.72;84.50;101618.09;4893926;29;20423;-67
2022/10/31 08:37:20;;;;;;;19.17;15.30;;;15.50;99.90;;;15.56;85.75;101619.44;4859003;29;20543;-68
2022/10/31 08:40:06;;;;;;;24.83;14.43;;;15.20;99.90;;;15.56;85.09;101618.59;4890087;29;20444;-69
2022/10/31 08:42:41;;;;;;;29.47;16.20;;;15.20;99.90;;;15.89;83.83;101613.78;4893245;29;20534;-68
2022/10/31 08:45:11;;;;;;;18.93;14.00;;;15.40;99.90;;;15.76;84.40;101618.50;4880238;29;20429;-68
2022/10/31 08:47:41;;;;;;;26.33;16.60;;;15.30;99.90;;;15.42;84.96;101606.88;4892324;29;20429;-68
2022/10/31 08:50:10;;;;;;;27.00;20.33;;;15.20;99.90;;;15.62;85.64;101607.66;4893043;29;20476;-67
2022/10/31 08:52:39;;;;;;;26.90;15.63;;;15.20;99.90;;;15.58;83.92;101600.13;4891547;29;20437;-69
2022/10/31 08:55:30;;;;;;;24.73;14.10;;;15.30;99.90;;;16.31;82.60;101600.47;4881933;29;20485;-67
2022/10/31 08:58:06;;;;;;;25.57;14.73;;;15.70;99.90;;;15.50;84.35;101600.34;4881779;29;20437;-67
2022/10/31 09:00:42;;;;;;;18.50;15.20;;;15.50;99.90;;;15.81;84.92;101616.78;4886218;29;20460;-69
2022/10/31 09:03:19;;;;;;;21.53;15.43;;;15.50;99.90;;;15.80;84.03;101612.38;4891246;29;20705;-68
2022/10/31 09:05:48;;;;;;;26.83;15.87;;;15.60;99.90;;;15.97;83.90;101610.81;4889668;29;20468;-68
2022/10/31 09:08:18;;;;;;;29.27;17.73;;;15.50;99.90;;;16.50;81.57;101621.31;4867364;29;20455;-66
2022/10/31 09:10:50;;;;;;;24.70;17.60;;;16.00;99.90;;;16.22;81.32;101612.72;4884769;29;20537;-68
2022/10/31 09:13:35;;;;;;;25.90;16.60;;;16.00;99.90;;;15.93;83.36;101614.19;4873566;29;20462;-67
2022/10/31 09:16:28;;;;;;;23.37;16.60;;;15.80;99.90;;;16.19;83.02;101618.63;4877155;29;21032;-69
2022/10/31 09:18:57;;;;;;;22.53;17.53;;;15.90;99.90;;;16.33;81.20;101618.31;4893271;29;20809;-68
2022/10/31 09:21:26;;;;;;;19.83;14.60;;;16.00;99.90;;;16.04;82.58;101622.50;4877037;29;20528;-68
2022/10/31 09:23:55;;;;;;;21.27;14.90;;;16.00;99.90;;;15.78;84.34;101625.41;4884166;29;20789;-68
2022/10/31 09:26:26;;;;;;;20.00;14.20;;;15.70;99.90;;;15.99;84.21;101632.41;4890832;29;20497;-69
2022/10/31 09:29:09;;;;;;;29.60;16.10;;;15.70;99.90;;;15.84;84.99;101632.72;4891087;29;20469;-68
2022/10/31 09:31:39;;;;;;;19.67;15.57;;;15.70;99.90;;;16.12;84.03;101626.03;4890355;29;20942;-68
2022/10/31 09:34:35;;;;;;;28.53;17.50;;;15.80;99.90;;;16.05;84.25;101637.00;4870033;29;20429;-68
2022/10/31 09:37:06;;;;;;;21.87;17.50;;;15.70;99.90;;;16.25;82.44;101634.13;4887057;29;20491;-69
2022/10/31 09:39:37;;;;;;;27.93;16.43;;;15.90;99.90;;;16.18;82.69;101633.31;4887111;29;20410;-68
2022/10/31 09:42:50;;;;;;;24.40;15.77;;;15.90;99.90;;;16.71;82.02;101633.75;4868947;29;20433;-67
2022/10/31 09:45:34;;;;;;;26.63;15.30;;;16.10;99.90;;;16.81;81.04;101637.66;4882365;29;20520;-68
2022/10/31 09:48:33;;;;;;;18.30;16.37;;;16.40;99.90;;;16.85;80.58;101652.53;4886834;29;20448;-67
2022/10/31 09:51:19;;;;;;;23.80;16.30;;;16.40;99.90;;;16.68;81.30;101651.44;4894448;29;20462;-68
2022/10/31 09:54:20;;;;;;;23.17;16.60;;;16.30;99.90;;;16.72;81.31;101660.03;4885253;29;20780;-68
2022/10/31 09:56:51;;;;;;;24.93;15.57;;;16.30;99.90;;;16.90;80.94;101652.69;4882919;29;20473;-68
2022/10/31 09:59:29;;;;;;;25.83;15.57;;;16.40;99.90;;;17.27;79.53;101652.75;4890114;29;20435;-68
2022/10/31 10:02:07;;;;;;;24.07;19.00;;;16.60;99.90;;;17.10;78.83;101646.19;4888458;29;20463;-69
2022/10/31 10:04:46;;;;;;;18.27;14.30;;;16.70;99.90;;;17.60;78.50;101649.63;4891245;29;20453;-68
2022/10/31 10:07:31;;;;;;;29.77;19.37;;;17.00;99.90;;;17.30;77.27;101649.53;4894360;29;20458;-68
2022/10/31 10:10:51;;;;;;;26.30;17.10;;;17.00;99.90;;;17.52;78.13;101633.50;4875549;29;20782;-69
2022/10/31 10:13:59;;;;;;;23.80;16.97;;;16.90;99.90;;;17.50;77.41;101639.19;4885103;29;20458;-68
2022/10/31 10:16:54;;;;;;;21.63;16.80;;;17.10;99.90;;;17.70;77.28;101634.34;4894777;29;20477;-69
2022/10/31 10:19:43;;;;;;;20.33;16.07;;;17.20;99.90;;;18.01;75.56;101629.69;4888313;29;20428;-68
2022/10/31 10:22:20;;;;;;;30.37;18.20;;;17.50;99.90;;;18.46;74.36;101633.59;4877304;29;20447;-68
2022/10/31 10:25:16;;;;;;;27.80;18.93;;;17.70;99.90;;;18.43;74.45;101627.75;4882161;29;20451;-69
2022/10/31 10:28:03;;;;;;;29.30;18.93;;;17.80;99.90;;;18.32;74.13;101621.19;4877293;29;20952;-68
2022/10/31 10:30:42;;;;;;;24.00;19.40;;;17.80;99.90;;;18.17;74.16;101624.38;4881849;29;20425;-68
2022/10/31 10:33:23;;;;;;;26.37;18.67;;;17.70;99.90;;;18.36;74.09;101616.06;4868004;29;20472;-68
2022/10/31 10:35:59;;;;;;;24.20;17.40;;;17.80;99.90;;;17.98;74.39;101620.03;4887325;29;21150;-68
2022/10/31 10:38:39;;;;;;;22.73;15.93;;;17.80;99.90;;;18.03;75.92;101616.59;4886819;29;20992;-68
2022/10/31 10:41:17;;;;;;;24.87;17.57;;;17.70;99.90;;;17.95;75.83;101608.72;4893786;29;20413;-67
2022/10/31 10:43:46;;;;;;;19.67;17.60;;;17.60;99.90;;;18.04;75.25;101604.56;4875227;29;20440;-69
2022/10/31 10:49:19;;;;;;;24.37;17.97;;;17.70;99.90;;;18.36;74.22;101597.72;4879966;29;20803;-69